Time;durP1;ratioP1;P1;durP2;ratioP2;P2;SDS_P1;SDS_P2;PMS_P1;PMS_P2;Temp;Humidity;BMP_temperature;BMP_pressure;BME280_temperature;BME280_humidity;BME280_pressure;Samples;Min_cycle;Max_cycle;Signal;HPM_P1;HPM_P2
2022/09/26 00:01:38;;;;;;;6.35;2.95;;;11.80;99.90;;;;;;5053482;28;20124;-63
2022/09/26 00:04:20;;;;;;;7.65;3.13;;;11.80;99.90;;;;;;5054952;28;20037;-63
2022/09/26 00:06:46;;;;;;;6.05;2.90;;;11.80;99.90;;;;;;5042370;28;20047;-64
2022/09/26 00:09:13;;;;;;;4.90;2.78;;;11.80;99.90;;;;;;5053751;28;20102;-64
2022/09/26 00:11:39;;;;;;;5.47;2.75;;;11.80;99.90;;;;;;5054748;28;20502;-64
2022/09/26 00:14:11;;;;;;;6.25;2.70;;;11.80;99.90;;;;;;5054860;28;20112;-64
2022/09/26 00:16:37;;;;;;;7.68;2.88;;;11.80;99.90;;;;;;5053850;28;20037;-62
2022/09/26 00:19:04;;;;;;;7.18;2.80;;;11.80;99.90;;;;;;5054940;28;20102;-65
2022/09/26 00:21:30;;;;;;;5.47;2.67;;;11.70;99.90;;;;;;5054669;28;20044;-64
2022/09/26 00:23:57;;;;;;;6.32;2.45;;;11.80;99.90;;;;;;5054691;28;20033;-64
2022/09/26 00:26:24;;;;;;;5.60;2.50;;;11.80;99.90;;;;;;5054482;28;20518;-64
2022/09/26 00:28:50;;;;;;;7.40;2.95;;;11.80;99.90;;;;;;5054195;28;20466;-64
2022/09/26 00:31:38;;;;;;;4.13;2.22;;;11.80;99.90;;;;;;5053688;28;20559;-64
2022/09/26 00:34:04;;;;;;;8.48;2.47;;;11.80;99.90;;;;;;5053996;28;20108;-64
2022/09/26 00:36:30;;;;;;;7.20;2.80;;;11.80;99.90;;;;;;5054556;28;20112;-64
2022/09/26 00:38:56;;;;;;;5.18;2.50;;;11.80;99.90;;;;;;5054479;28;20125;-62
2022/09/26 00:41:22;;;;;;;8.20;2.38;;;11.80;99.90;;;;;;5053877;28;20040;-62
2022/09/26 00:43:53;;;;;;;4.82;2.35;;;11.90;99.90;;;;;;5054047;28;20044;-64
2022/09/26 00:46:36;;;;;;;5.18;2.22;;;11.80;99.90;;;;;;5054336;28;20032;-63
2022/09/26 00:49:11;;;;;;;6.38;2.17;;;11.80;99.90;;;;;;5053500;28;20053;-63
2022/09/26 00:51:41;;;;;;;6.50;2.30;;;11.90;99.90;;;;;;5052880;28;20674;-63
2022/09/26 00:54:10;;;;;;;5.45;2.70;;;11.90;99.90;;;;;;5054214;28;20037;-63
2022/09/26 00:56:38;;;;;;;6.80;2.42;;;11.90;99.90;;;;;;5053309;28;20079;-63
2022/09/26 00:59:16;;;;;;;7.57;2.53;;;11.90;99.90;;;;;;5054189;28;20486;-63
2022/09/26 01:01:42;;;;;;;7.13;2.55;;;11.90;99.90;;;;;;5054189;28;20052;-64
2022/09/26 01:04:09;;;;;;;7.85;3.00;;;11.90;99.90;;;;;;5054204;28;20033;-64
2022/09/26 01:06:35;;;;;;;6.03;2.60;;;11.90;99.90;;;;;;5040255;28;20040;-63
2022/09/26 01:09:07;;;;;;;6.25;2.88;;;11.90;99.90;;;;;;5053540;28;20350;-63
2022/09/26 01:11:35;;;;;;;7.13;2.63;;;11.90;99.90;;;;;;5053457;28;20045;-63
2022/09/26 01:14:01;;;;;;;5.85;2.55;;;11.90;99.90;;;;;;5053510;28;20043;-63
2022/09/26 01:16:27;;;;;;;6.88;2.40;;;11.90;99.90;;;;;;5053870;28;20086;-63
2022/09/26 01:18:53;;;;;;;6.35;2.78;;;11.90;99.90;;;;;;5053325;28;20029;-66
2022/09/26 01:21:24;;;;;;;5.60;2.45;;;11.90;99.90;;;;;;5053487;28;20095;-63
2022/09/26 01:24:01;;;;;;;5.28;2.47;;;11.90;99.90;;;;;;5053452;28;20045;-63
2022/09/26 01:27:05;;;;;;;5.07;2.67;;;11.90;99.90;;;;;;5053353;28;20055;-64
2022/09/26 01:30:03;;;;;;;6.22;2.30;;;11.90;99.90;;;;;;5042387;28;20045;-64
2022/09/26 01:32:48;;;;;;;7.18;2.47;;;11.90;99.90;;;;;;5051559;28;20074;-63
2022/09/26 01:35:43;;;;;;;5.65;2.38;;;11.90;99.90;;;;;;5052987;28;20029;-63
2022/09/26 01:38:47;;;;;;;5.38;2.00;;;11.90;99.90;;;;;;5052997;28;20053;-64
2022/09/26 01:41:34;;;;;;;6.10;2.25;;;11.90;99.90;;;;;;5040598;28;20132;-63
2022/09/26 01:44:29;;;;;;;4.43;2.30;;;11.90;99.90;;;;;;5052804;28;20076;-64
2022/09/26 01:47:15;;;;;;;6.57;2.90;;;11.90;99.90;;;;;;5053717;28;20052;-63
2022/09/26 01:50:10;;;;;;;6.22;2.80;;;11.90;99.90;;;;;;5053348;28;20466;-64
2022/09/26 01:52:42;;;;;;;;;;;11.90;99.90;;;;;;5052063;28;20041;-63
2022/09/26 01:55:18;;;;;;;8.75;3.28;;;11.90;99.90;;;;;;5053287;28;19963;-64
2022/09/26 01:57:50;;;;;;;6.60;2.70;;;11.90;99.90;;;;;;5053244;28;20438;-64
2022/09/26 02:00:17;;;;;;;7.47;2.97;;;12.00;99.90;;;;;;5053349;28;20036;-64
2022/09/26 02:02:45;;;;;;;6.00;3.30;;;12.00;99.90;;;;;;5052476;28;20044;-64
2022/09/26 02:05:26;;;;;;;6.10;3.85;;;12.00;99.90;;;;;;5052812;28;20041;-63
2022/09/26 02:08:08;;;;;;;8.23;3.35;;;12.00;99.90;;;;;;5052899;28;20081;-65
2022/09/26 02:10:42;;;;;;;7.10;3.60;;;12.00;99.90;;;;;;5053164;28;20047;-64
2022/09/26 02:13:20;;;;;;;6.93;3.63;;;12.00;99.90;;;;;;5052518;28;20399;-64
2022/09/26 02:15:51;;;;;;;6.45;3.60;;;12.00;99.90;;;;;;5052771;28;20055;-64
2022/09/26 02:18:27;;;;;;;7.93;4.05;;;12.00;99.90;;;;;;5052846;28;20122;-65
2022/09/26 02:21:02;;;;;;;9.57;4.57;;;12.00;99.90;;;;;;5052635;28;20033;-65
2022/09/26 02:23:28;;;;;;;7.78;4.32;;;12.00;99.90;;;;;;5052573;28;20058;-64
2022/09/26 02:25:54;;;;;;;8.23;4.18;;;12.00;99.90;;;;;;5052824;28;20497;-64
2022/09/26 02:28:20;;;;;;;7.68;4.15;;;12.00;99.90;;;;;;5052562;28;20524;-64
2022/09/26 02:30:48;;;;;;;7.13;4.15;;;12.00;99.90;;;;;;5052191;28;20115;-64
2022/09/26 02:33:14;;;;;;;9.98;4.28;;;12.00;99.90;;;;;;5051404;28;20144;-64
2022/09/26 02:35:53;;;;;;;9.77;4.03;;;12.00;99.90;;;;;;5052405;28;20116;-63
2022/09/26 02:38:25;;;;;;;7.47;3.95;;;12.00;99.90;;;;;;5051801;28;20414;-64
2022/09/26 02:41:12;;;;;;;8.38;4.30;;;12.00;99.90;;;;;;5051541;28;20040;-64
2022/09/26 02:43:43;;;;;;;11.93;4.97;;;11.90;99.90;;;;;;5051920;28;20048;-64
2022/09/26 02:46:39;;;;;;;7.18;4.28;;;11.90;99.90;;;;;;5052208;28;20095;-64
2022/09/26 02:49:10;;;;;;;7.97;4.40;;;11.90;99.90;;;;;;5051443;28;20547;-64
2022/09/26 02:51:44;;;;;;;8.60;4.60;;;11.80;99.90;;;;;;5051711;28;20362;-64
2022/09/26 02:54:24;;;;;;;7.50;4.22;;;11.80;99.90;;;;;;5050469;28;20037;-64
2022/09/26 02:57:11;;;;;;;8.73;4.55;;;11.80;99.90;;;;;;5052242;28;20040;-64
2022/09/26 02:59:58;;;;;;;9.15;4.70;;;11.80;99.90;;;;;;5052266;28;20033;-64
2022/09/26 03:02:36;;;;;;;8.82;4.43;;;11.80;99.90;;;;;;5051380;28;20429;-64
2022/09/26 03:05:08;;;;;;;8.70;4.32;;;11.70;99.90;;;;;;5043950;28;20637;-64
2022/09/26 03:07:46;;;;;;;6.15;3.92;;;11.70;99.90;;;;;;5051647;28;20120;-64
2022/09/26 03:10:12;;;;;;;7.15;4.18;;;11.70;99.90;;;;;;5051887;28;20043;-65
2022/09/26 03:12:40;;;;;;;7.05;3.95;;;11.60;99.90;;;;;;5051082;28;20037;-65
2022/09/26 03:15:08;;;;;;;7.97;4.38;;;11.60;99.90;;;;;;5050990;28;20044;-65
2022/09/26 03:17:36;;;;;;;6.82;4.03;;;11.60;99.90;;;;;;5050523;28;20045;-65
2022/09/26 03:20:15;;;;;;;7.18;4.13;;;11.60;99.90;;;;;;5051748;28;20041;-64
2022/09/26 03:22:43;;;;;;;6.82;3.92;;;11.60;99.90;;;;;;5051427;28;20049;-64
2022/09/26 03:25:14;;;;;;;6.72;3.85;;;11.50;99.90;;;;;;5051549;28;20056;-64
2022/09/26 03:27:42;;;;;;;7.20;4.05;;;11.50;99.90;;;;;;5051467;28;20511;-65
2022/09/26 03:30:09;;;;;;;9.32;4.32;;;11.50;99.90;;;;;;5050676;28;20044;-64
2022/09/26 03:32:36;;;;;;;9.50;4.40;;;11.50;99.90;;;;;;5051141;28;20045;-64
2022/09/26 03:35:02;;;;;;;8.07;3.80;;;11.50;99.90;;;;;;5051457;28;20159;-64
2022/09/26 03:37:28;;;;;;;5.85;3.75;;;11.50;99.90;;;;;;5050932;28;20049;-64
2022/09/26 03:39:53;;;;;;;6.07;3.90;;;11.50;99.90;;;;;;5051244;28;20033;-64
2022/09/26 03:42:19;;;;;;;6.70;4.15;;;11.50;99.90;;;;;;5051194;28;20053;-63
2022/09/26 03:44:45;;;;;;;10.23;4.68;;;11.50;99.90;;;;;;5051375;28;20130;-64
2022/09/26 03:47:10;;;;;;;7.82;4.32;;;11.50;99.90;;;;;;5051498;28;20119;-64
2022/09/26 03:49:37;;;;;;;5.95;4.28;;;11.50;99.90;;;;;;5051757;28;20033;-63
2022/09/26 03:52:03;;;;;;;8.80;4.88;;;11.50;99.90;;;;;;5051060;28;20041;-64
2022/09/26 03:54:29;;;;;;;8.07;4.35;;;11.50;99.90;;;;;;5051167;28;20028;-63
2022/09/26 03:56:55;;;;;;;8.98;4.13;;;11.50;99.90;;;;;;5051448;28;20465;-64
2022/09/26 03:59:20;;;;;;;7.65;4.30;;;11.50;99.90;;;;;;5051197;28;20056;-64
2022/09/26 04:01:46;;;;;;;7.47;4.15;;;11.50;99.90;;;;;;5051087;28;20140;-64
2022/09/26 04:04:14;;;;;;;7.30;4.57;;;11.50;99.90;;;;;;5051241;28;20037;-63
2022/09/26 04:06:39;;;;;;;7.47;4.40;;;11.50;99.90;;;;;;5051582;28;20045;-64
2022/09/26 04:09:05;;;;;;;7.72;4.10;;;11.50;99.90;;;;;;5051342;28;20052;-65
2022/09/26 04:11:31;;;;;;;10.50;4.50;;;11.50;99.90;;;;;;5050500;28;20033;-64
2022/09/26 04:13:56;;;;;;;6.40;4.53;;;11.50;99.90;;;;;;5051128;28;20473;-65
2022/09/26 04:16:22;;;;;;;7.82;4.47;;;11.50;99.90;;;;;;5051255;28;20414;-63
2022/09/26 04:18:48;;;;;;;8.82;4.18;;;11.40;99.90;;;;;;5051281;28;20376;-63
2022/09/26 04:21:15;;;;;;;10.13;4.55;;;11.40;99.90;;;;;;5050495;28;20495;-64
2022/09/26 04:23:42;;;;;;;9.77;4.20;;;11.40;99.90;;;;;;5051032;28;20083;-63
2022/09/26 04:26:16;;;;;;;9.88;4.60;;;11.40;99.90;;;;;;5052570;28;20056;-64
2022/09/26 04:28:43;;;;;;;7.10;3.90;;;11.40;99.90;;;;;;5055214;28;20056;-63
2022/09/26 04:31:10;;;;;;;9.27;4.85;;;11.40;99.90;;;;;;5054615;28;20041;-63
2022/09/26 04:33:38;;;;;;;9.00;5.07;;;11.40;99.90;;;;;;5054544;28;20160;-64
2022/09/26 04:36:07;;;;;;;9.30;4.55;;;11.40;99.90;;;;;;5054663;28;20067;-65
2022/09/26 04:38:33;;;;;;;8.05;4.43;;;11.40;99.90;;;;;;5053938;28;20159;-64
2022/09/26 04:41:07;;;;;;;7.50;4.32;;;11.40;99.90;;;;;;5053554;28;20112;-63
2022/09/26 04:43:33;;;;;;;7.60;5.18;;;11.40;99.90;;;;;;5054737;28;20048;-64
2022/09/26 04:46:00;;;;;;;7.90;4.97;;;11.40;99.90;;;;;;5054266;28;20036;-63
2022/09/26 04:48:26;;;;;;;8.77;4.80;;;11.40;99.90;;;;;;5054601;28;20105;-63
2022/09/26 04:50:52;;;;;;;6.20;4.75;;;11.40;99.90;;;;;;5054143;28;20045;-63
2022/09/26 04:53:18;;;;;;;7.22;4.57;;;11.40;99.90;;;;;;5054106;28;20068;-63
2022/09/26 04:55:44;;;;;;;8.40;5.25;;;11.40;99.90;;;;;;5053046;28;20510;-63
2022/09/26 04:58:11;;;;;;;9.23;5.00;;;11.40;99.90;;;;;;5053006;28;20047;-63
2022/09/26 05:00:45;;;;;;;9.48;5.07;;;11.30;99.90;;;;;;5051873;28;20066;-63
2022/09/26 05:03:14;;;;;;;8.45;5.00;;;11.40;99.90;;;;;;5051939;28;20103;-64
2022/09/26 05:05:40;;;;;;;9.45;5.18;;;11.30;99.90;;;;;;5052589;28;20044;-63
2022/09/26 05:08:08;;;;;;;10.45;5.25;;;11.30;99.90;;;;;;5053208;28;20116;-64
2022/09/26 05:10:34;;;;;;;9.38;5.55;;;11.30;99.90;;;;;;5053280;28;20094;-63
2022/09/26 05:12:59;;;;;;;7.50;4.97;;;11.20;99.90;;;;;;5053642;28;20061;-64
2022/09/26 05:15:25;;;;;;;7.93;4.95;;;11.30;99.90;;;;;;5052482;28;20033;-64
2022/09/26 05:17:58;;;;;;;6.97;5.25;;;11.30;99.90;;;;;;5053245;28;20033;-64
2022/09/26 05:20:28;;;;;;;10.32;5.28;;;11.30;99.90;;;;;;5051551;28;20052;-63
2022/09/26 05:23:06;;;;;;;8.80;5.05;;;11.20;99.90;;;;;;5053083;28;20119;-63
2022/09/26 05:28:23;;;;;;;8.30;5.10;;;11.20;99.90;;;;;;5053966;28;20202;-63
2022/09/26 05:30:50;;;;;;;9.75;4.82;;;11.10;99.90;;;;;;5052700;28;20045;-63
2022/09/26 05:33:20;;;;;;;9.18;5.47;;;11.20;99.90;;;;;;5051932;28;20465;-64
2022/09/26 05:35:52;;;;;;;9.75;5.10;;;11.10;99.90;;;;;;5052485;28;20449;-64
2022/09/26 05:38:18;;;;;;;7.45;5.20;;;11.10;99.90;;;;;;5050088;28;20116;-64
2022/09/26 05:40:56;;;;;;;8.93;5.07;;;11.10;99.90;;;;;;5050648;28;20215;-64
2022/09/26 05:43:26;;;;;;;7.65;4.85;;;11.10;99.90;;;;;;5049425;28;20041;-63
2022/09/26 05:46:05;;;;;;;7.93;5.00;;;11.10;99.90;;;;;;5052496;28;20138;-63
2022/09/26 05:48:32;;;;;;;8.13;4.93;;;11.10;99.90;;;;;;5052958;28;20049;-63
2022/09/26 05:51:08;;;;;;;9.00;5.30;;;11.10;99.90;;;;;;5052422;28;20481;-64
2022/09/26 05:53:34;;;;;;;6.78;5.15;;;11.10;99.90;;;;;;5052395;28;20098;-63
2022/09/26 05:56:00;;;;;;;8.43;5.00;;;11.10;99.90;;;;;;5051568;28;20523;-62
2022/09/26 05:58:31;;;;;;;9.57;5.10;;;11.00;99.90;;;;;;5052592;28;20179;-63
2022/09/26 06:01:05;;;;;;;5.82;4.60;;;11.00;99.90;;;;;;5049406;28;20028;-64
2022/09/26 06:03:34;;;;;;;8.32;5.00;;;11.00;99.90;;;;;;5050146;28;20381;-62
2022/09/26 06:06:01;;;;;;;9.00;5.00;;;11.00;99.90;;;;;;5050288;28;20044;-63
2022/09/26 06:08:27;;;;;;;7.47;4.45;;;11.00;99.90;;;;;;5052048;28;20048;-64
2022/09/26 06:10:58;;;;;;;10.13;4.88;;;11.00;99.90;;;;;;5051178;28;20366;-63
2022/09/26 06:13:24;;;;;;;8.77;4.28;;;11.00;99.90;;;;;;5049972;28;20382;-64
2022/09/26 06:15:50;;;;;;;6.30;4.32;;;11.00;99.90;;;;;;5051149;28;20036;-65
2022/09/26 06:18:17;;;;;;;7.28;3.90;;;11.10;99.90;;;;;;5050182;28;20045;-62
2022/09/26 06:20:43;;;;;;;7.28;4.03;;;11.00;99.90;;;;;;5033196;28;20033;-66
2022/09/26 06:23:08;;;;;;;6.60;4.15;;;11.00;99.90;;;;;;5050736;28;20091;-64
2022/09/26 06:25:34;;;;;;;7.80;3.60;;;11.10;99.90;;;;;;5050779;28;20488;-63
2022/09/26 06:28:00;;;;;;;5.38;3.40;;;11.00;99.90;;;;;;5051816;28;20033;-63
2022/09/26 06:30:26;;;;;;;8.43;3.40;;;11.10;99.90;;;;;;5051582;28;20052;-64
2022/09/26 06:32:51;;;;;;;8.88;3.75;;;11.00;99.90;;;;;;5051300;28;20135;-63
2022/09/26 06:35:18;;;;;;;7.18;3.55;;;11.10;99.90;;;;;;5051631;28;20037;-64
2022/09/26 06:37:44;;;;;;;6.93;3.50;;;11.10;99.90;;;;;;5050335;28;20143;-64
2022/09/26 06:40:10;;;;;;;5.78;3.00;;;11.00;99.90;;;;;;5052077;28;20061;-63
2022/09/26 06:42:37;;;;;;;9.30;3.55;;;11.00;99.90;;;;;;5051327;28;20478;-63
2022/09/26 06:45:07;;;;;;;4.93;3.15;;;11.10;99.90;;;;;;5050357;28;20040;-63
2022/09/26 06:47:33;;;;;;;6.13;3.10;;;11.10;99.90;;;;;;5052159;28;20073;-63
2022/09/26 06:49:59;;;;;;;5.80;3.40;;;11.00;99.90;;;;;;5051085;28;20041;-63
2022/09/26 06:52:25;;;;;;;8.38;3.63;;;11.10;99.90;;;;;;5051000;28;20443;-63
2022/09/26 06:54:53;;;;;;;8.93;3.60;;;11.10;99.90;;;;;;5051397;28;20033;-64
2022/09/26 06:57:19;;;;;;;5.93;3.55;;;11.10;99.90;;;;;;5051412;28;20048;-64
2022/09/26 06:59:45;;;;;;;7.57;3.25;;;11.10;99.90;;;;;;5051212;28;20114;-64
2022/09/26 07:02:11;;;;;;;6.20;3.35;;;11.00;99.90;;;;;;5051621;28;20037;-64
2022/09/26 07:04:36;;;;;;;5.53;3.10;;;11.00;99.90;;;;;;5050229;28;20061;-63
2022/09/26 07:07:02;;;;;;;6.15;3.30;;;11.10;99.90;;;;;;5051348;28;20553;-63
2022/09/26 07:09:28;;;;;;;6.28;3.20;;;11.00;99.90;;;;;;5051356;28;20349;-63
2022/09/26 07:11:54;;;;;;;8.27;3.30;;;11.00;99.90;;;;;;5051856;28;20127;-64
2022/09/26 07:14:20;;;;;;;8.20;3.70;;;11.00;99.90;;;;;;5051300;28;20029;-62
2022/09/26 07:16:48;;;;;;;9.27;3.40;;;10.90;99.90;;;;;;5051461;28;20069;-63
2022/09/26 07:19:15;;;;;;;8.18;3.40;;;10.90;99.90;;;;;;5051016;28;20465;-64
2022/09/26 07:21:40;;;;;;;5.43;3.10;;;10.90;99.90;;;;;;5050489;28;20106;-62
2022/09/26 07:24:07;;;;;;;7.03;3.85;;;10.90;99.90;;;;;;5049598;28;20032;-62
2022/09/26 07:26:33;;;;;;;4.97;3.17;;;10.90;99.90;;;;;;5050140;28;20076;-64
2022/09/26 07:28:59;;;;;;;5.80;3.40;;;10.90;99.90;;;;;;5051060;28;20029;-63
2022/09/26 07:31:25;;;;;;;6.97;3.20;;;11.00;99.90;;;;;;5051628;28;20350;-63
2022/09/26 07:33:51;;;;;;;6.03;3.40;;;11.00;99.90;;;;;;5049776;28;20041;-62
2022/09/26 07:36:17;;;;;;;6.85;3.03;;;11.00;99.90;;;;;;5051266;28;20068;-63
2022/09/26 07:38:47;;;;;;;5.70;2.97;;;11.10;99.90;;;;;;5051670;28;20297;-64
2022/09/26 07:41:13;;;;;;;7.57;3.38;;;11.20;99.90;;;;;;5051303;28;20038;-64
2022/09/26 07:43:38;;;;;;;6.55;3.17;;;11.30;99.90;;;;;;5051198;28;20033;-63
2022/09/26 07:51:32;;;;;;;5.03;2.97;;;11.50;99.90;;;;;;5039953;28;20057;-63
2022/09/26 07:53:58;;;;;;;6.00;3.10;;;11.50;99.90;;;;;;5050686;28;20342;-65
2022/09/26 07:56:23;;;;;;;6.63;2.70;;;11.60;99.90;;;;;;5051010;28;20047;-64
2022/09/26 07:58:49;;;;;;;6.60;3.00;;;11.60;99.90;;;;;;5051158;28;20529;-63
2022/09/26 08:01:15;;;;;;;7.55;2.97;;;11.70;99.90;;;;;;5052623;28;20041;-63
2022/09/26 08:03:43;;;;;;;7.30;3.03;;;11.70;99.90;;;;;;5054796;28;20043;-64
2022/09/26 08:06:11;;;;;;;6.20;3.00;;;11.80;99.90;;;;;;5054627;28;20044;-63
2022/09/26 08:08:37;;;;;;;5.82;2.60;;;11.80;99.90;;;;;;5053746;28;20037;-63
2022/09/26 08:11:04;;;;;;;6.18;2.67;;;11.90;99.90;;;;;;5054555;28;20041;-64
2022/09/26 08:13:31;;;;;;;4.10;2.60;;;11.90;99.90;;;;;;5054117;28;20059;-63
2022/09/26 08:16:02;;;;;;;7.88;3.03;;;12.00;99.90;;;;;;5054719;28;20135;-63
2022/09/26 08:18:28;;;;;;;10.95;2.58;;;11.90;99.90;;;;;;5041294;28;20036;-63
2022/09/26 08:20:54;;;;;;;6.25;2.47;;;12.00;99.90;;;;;;5053859;28;20037;-64
2022/09/26 08:23:20;;;;;;;6.88;2.72;;;12.00;99.90;;;;;;5054433;28;20506;-63
2022/09/26 08:25:46;;;;;;;6.70;2.70;;;12.00;99.90;;;;;;5054637;28;20434;-64
2022/09/26 08:28:12;;;;;;;7.47;2.80;;;12.00;99.90;;;;;;5054878;28;20049;-64
2022/09/26 08:30:39;;;;;;;5.40;2.72;;;12.00;99.90;;;;;;5053836;28;20469;-63
2022/09/26 08:33:11;;;;;;;7.38;2.60;;;12.00;99.90;;;;;;5053868;28;20493;-64
2022/09/26 08:35:40;;;;;;;4.30;2.33;;;12.00;99.90;;;;;;5053117;28;20037;-63
2022/09/26 08:38:07;;;;;;;7.15;2.58;;;12.00;99.90;;;;;;5054088;28;20106;-63
2022/09/26 08:40:48;;;;;;;8.40;2.92;;;12.00;99.90;;;;;;5054205;28;20048;-63
2022/09/26 08:43:28;;;;;;;5.35;2.60;;;12.10;99.90;;;;;;5052927;28;20067;-64
2022/09/26 08:48:57;;;;;;;7.47;3.15;;;12.10;99.90;;;;;;5054283;28;20049;-64
2022/09/26 08:51:37;;;;;;;5.72;2.90;;;12.10;99.90;;;;;;5054256;28;20052;-65
2022/09/26 08:54:14;;;;;;;8.00;3.25;;;12.10;99.90;;;;;;5053264;28;20045;-64
2022/09/26 08:56:45;;;;;;;6.88;3.33;;;12.20;99.90;;;;;;5053690;28;20037;-64
2022/09/26 08:59:18;;;;;;;4.82;3.03;;;12.30;99.90;;;;;;5054154;28;20033;-64
2022/09/26 09:01:46;;;;;;;5.68;3.05;;;12.30;99.90;;;;;;5054168;28;20075;-64
2022/09/26 09:04:13;;;;;;;5.03;2.97;;;12.30;99.90;;;;;;5053422;28;20037;-63
2022/09/26 09:06:40;;;;;;;9.10;3.53;;;12.30;99.90;;;;;;5052989;28;20171;-64
2022/09/26 09:09:06;;;;;;;5.35;2.88;;;12.30;99.90;;;;;;5053134;28;20041;-64
2022/09/26 09:11:56;;;;;;;7.88;3.33;;;12.40;99.90;;;;;;5053687;28;20090;-65
2022/09/26 09:14:58;;;;;;;9.38;3.42;;;12.40;99.90;;;;;;5047497;28;20049;-69
2022/09/26 09:17:42;;;;;;;6.50;3.08;;;12.50;99.90;;;;;;5053816;28;20103;-65
2022/09/26 09:20:10;;;;;;;8.57;3.38;;;12.50;99.90;;;;;;5053840;28;20040;-65
2022/09/26 09:22:54;;;;;;;7.82;3.17;;;12.50;99.90;;;;;;5044958;28;20517;-64
2022/09/26 09:25:20;;;;;;;7.63;3.50;;;12.50;99.90;;;;;;5053396;28;20163;-64
2022/09/26 09:28:15;;;;;;;6.65;2.97;;;12.50;99.90;;;;;;5053747;28;20056;-64
2022/09/26 09:30:44;;;;;;;;;;;12.50;99.90;;;;;;5037402;28;20117;-64
2022/09/26 09:33:21;;;;;;;8.02;3.00;;;12.40;99.90;;;;;;5053270;28;20546;-65
2022/09/26 09:35:58;;;;;;;7.25;3.47;;;12.40;99.90;;;;;;5053193;28;20045;-64
2022/09/26 09:38:30;;;;;;;8.88;3.15;;;12.50;99.90;;;;;;5052754;28;20433;-64
2022/09/26 09:41:06;;;;;;;7.28;3.17;;;12.40;99.90;;;;;;5051886;28;20358;-64
2022/09/26 09:43:50;;;;;;;7.80;3.42;;;12.50;99.90;;;;;;5052043;28;20105;-64
2022/09/26 09:46:38;;;;;;;7.50;3.17;;;12.50;99.90;;;;;;5052012;28;20037;-64
2022/09/26 09:49:07;;;;;;;6.50;2.85;;;12.50;99.90;;;;;;5051664;28;20080;-63
2022/09/26 09:51:57;;;;;;;7.25;3.35;;;12.50;99.90;;;;;;5052382;28;20427;-64
2022/09/26 09:54:41;;;;;;;7.32;3.22;;;12.50;99.90;;;;;;5051180;28;20084;-64
2022/09/26 09:57:37;;;;;;;7.53;3.53;;;12.50;99.90;;;;;;5053150;28;20045;-64
2022/09/26 10:00:05;;;;;;;9.45;3.50;;;12.50;99.90;;;;;;5041252;28;20036;-64
2022/09/26 10:02:42;;;;;;;6.63;3.20;;;12.50;99.90;;;;;;5051421;28;20037;-64
2022/09/26 10:05:12;;;;;;;7.22;3.20;;;12.50;99.90;;;;;;5052859;28;20029;-64
2022/09/26 10:07:37;;;;;;;5.50;2.92;;;12.50;99.90;;;;;;5051801;28;20076;-64
2022/09/26 10:10:06;;;;;;;7.55;3.35;;;12.50;99.90;;;;;;5053083;28;20489;-65
2022/09/26 10:12:34;;;;;;;5.65;3.22;;;12.50;99.90;;;;;;5052589;28;20381;-64
2022/09/26 10:15:05;;;;;;;5.93;3.03;;;12.50;99.90;;;;;;5051000;28;20037;-64
2022/09/26 10:17:31;;;;;;;7.28;3.20;;;12.50;99.90;;;;;;5052774;28;20033;-63
2022/09/26 10:19:56;;;;;;;6.68;3.05;;;12.40;99.90;;;;;;5052332;28;20048;-63
2022/09/26 10:22:43;;;;;;;6.75;3.08;;;12.40;99.90;;;;;;5051838;28;20041;-64
2022/09/26 10:25:19;;;;;;;5.63;3.13;;;12.40;99.90;;;;;;5050656;28;20032;-65
2022/09/26 10:27:52;;;;;;;10.00;3.55;;;12.30;99.90;;;;;;5052142;28;20033;-64
2022/09/26 10:30:18;;;;;;;7.60;3.33;;;12.30;99.90;;;;;;5051645;28;20435;-65
2022/09/26 10:32:49;;;;;;;5.65;3.20;;;12.30;99.90;;;;;;5051398;28;20037;-64
2022/09/26 10:35:23;;;;;;;5.65;3.22;;;12.30;99.90;;;;;;5051530;28;20401;-64
2022/09/26 10:37:59;;;;;;;5.22;3.00;;;12.30;99.90;;;;;;5039032;28;20049;-65
2022/09/26 10:40:44;;;;;;;5.70;3.00;;;12.30;99.90;;;;;;5052353;28;20366;-64
2022/09/26 10:43:19;;;;;;;;;;;12.30;99.90;;;;;;5052494;28;20417;-63
2022/09/26 10:45:47;;;;;;;4.75;2.92;;;12.30;99.90;;;;;;5051698;28;20265;-64
2022/09/26 10:48:20;;;;;;;6.85;3.83;;;12.30;99.90;;;;;;5052271;28;20114;-64
2022/09/26 10:50:50;;;;;;;8.23;3.53;;;12.30;99.90;;;;;;5051948;28;20052;-63
2022/09/26 10:53:21;;;;;;;5.32;3.33;;;12.30;99.90;;;;;;5051774;28;20048;-63
2022/09/26 10:55:57;;;;;;;7.40;3.47;;;12.30;99.90;;;;;;5051969;28;20060;-65
2022/09/26 10:58:28;;;;;;;6.40;3.83;;;12.20;99.90;;;;;;5051328;28;20041;-64
2022/09/26 11:00:56;;;;;;;6.72;3.42;;;12.20;99.90;;;;;;5050679;28;20048;-64
2022/09/26 11:03:40;;;;;;;5.82;3.50;;;12.20;99.90;;;;;;5050889;28;20051;-63
2022/09/26 11:06:25;;;;;;;6.07;3.67;;;12.30;99.90;;;;;;5051204;28;20062;-63
2022/09/26 11:08:53;;;;;;;7.65;3.95;;;12.30;99.90;;;;;;5051209;28;20044;-63
2022/09/26 11:11:21;;;;;;;6.97;3.40;;;12.30;99.90;;;;;;5051359;28;20133;-63
2022/09/26 11:14:05;;;;;;;6.03;3.90;;;12.30;99.90;;;;;;5050924;28;20268;-62
2022/09/26 11:16:59;;;;;;;6.53;4.10;;;12.30;99.90;;;;;;5050274;28;20041;-63
2022/09/26 11:19:32;;;;;;;9.02;3.85;;;12.30;99.90;;;;;;5048567;28;20045;-63
2022/09/26 11:22:04;;;;;;;7.95;3.63;;;12.30;99.90;;;;;;5050462;28;20142;-63
2022/09/26 11:25:13;;;;;;;6.35;3.70;;;12.30;99.90;;;;;;5051210;28;20040;-63
2022/09/26 11:27:51;;;;;;;5.70;3.63;;;12.30;99.90;;;;;;5035587;28;20099;-64
2022/09/26 11:30:21;;;;;;;6.38;3.83;;;12.30;99.90;;;;;;5050808;28;20032;-63
2022/09/26 11:32:55;;;;;;;5.60;3.45;;;12.30;99.90;;;;;;5049877;28;20501;-62
2022/09/26 11:35:33;;;;;;;5.50;3.70;;;12.30;99.90;;;;;;5045573;28;20052;-62
2022/09/26 11:38:39;;;;;;;5.82;3.53;;;12.30;99.90;;;;;;5050142;28;20477;-62
2022/09/26 11:41:15;;;;;;;7.38;3.83;;;12.30;99.90;;;;;;5039078;28;20047;-63
2022/09/26 11:44:00;;;;;;;5.82;3.60;;;12.30;99.90;;;;;;5049778;28;20068;-63
2022/09/26 11:46:55;;;;;;;6.57;3.42;;;12.30;99.90;;;;;;5049896;28;20041;-63
2022/09/26 11:49:48;;;;;;;6.25;3.90;;;12.30;99.90;;;;;;5051402;28;20063;-63
2022/09/26 11:52:39;;;;;;;6.30;3.92;;;12.30;99.90;;;;;;5050758;28;20113;-63
2022/09/26 11:55:31;;;;;;;6.38;3.38;;;12.30;99.90;;;;;;5040523;28;20104;-63
2022/09/26 11:58:00;;;;;;;6.57;3.78;;;12.30;99.90;;;;;;5050929;28;20037;-63
2022/09/26 12:00:59;;;;;;;4.05;3.13;;;12.30;99.90;;;;;;5050913;28;20115;-62
2022/09/26 12:03:48;;;;;;;6.05;3.50;;;12.30;99.90;;;;;;5050393;28;20048;-63
2022/09/26 12:06:21;;;;;;;4.40;3.20;;;12.30;99.90;;;;;;5048120;28;20366;-63
2022/09/26 12:09:13;;;;;;;6.40;2.95;;;12.30;99.90;;;;;;5050315;28;20041;-63
2022/09/26 12:12:03;;;;;;;6.13;3.25;;;12.40;99.90;;;;;;5050107;28;20079;-64
2022/09/26 12:14:38;;;;;;;5.85;2.83;;;12.40;99.90;;;;;;5050486;28;21152;-62
2022/09/26 12:17:41;;;;;;;4.32;2.80;;;12.40;99.90;;;;;;5048848;28;20036;-64
2022/09/26 12:20:29;;;;;;;7.88;4.75;;;12.40;99.90;;;;;;5050203;28;20040;-64
2022/09/26 12:23:08;;;;;;;6.60;3.88;;;12.40;99.90;;;;;;5049656;28;20041;-64
2022/09/26 12:26:08;;;;;;;6.80;4.15;;;12.50;99.90;;;;;;5049020;28;20413;-64
2022/09/26 12:29:07;;;;;;;7.68;5.07;;;12.50;99.90;;;;;;5049010;28;20478;-63
2022/09/26 12:31:39;;;;;;;10.18;7.03;;;12.50;99.90;;;;;;5050341;28;20055;-63
2022/09/26 12:34:19;;;;;;;4.47;2.63;;;12.50;99.90;;;;;;5050567;28;20386;-62
2022/09/26 12:37:11;;;;;;;3.45;2.40;;;12.50;99.90;;;;;;5042898;28;20081;-64
2022/09/26 12:40:24;;;;;;;3.38;2.30;;;12.50;99.90;;;;;;5046371;28;20673;-64
2022/09/26 12:43:18;;;;;;;5.05;2.70;;;12.50;99.90;;;;;;5038016;28;20064;-63
2022/09/26 12:45:56;;;;;;;2.92;2.15;;;12.50;99.90;;;;;;5050072;28;20457;-63
2022/09/26 12:48:46;;;;;;;4.13;2.70;;;12.60;99.90;;;;;;5051925;28;20040;-63
2022/09/26 12:51:32;;;;;;;4.65;3.13;;;12.60;99.90;;;;;;5054055;28;20119;-63
2022/09/26 12:54:16;;;;;;;4.82;3.03;;;12.60;99.90;;;;;;5047518;28;20045;-63
2022/09/26 12:57:06;;;;;;;5.57;3.10;;;12.70;99.90;;;;;;5051030;28;20049;-63
2022/09/26 12:59:48;;;;;;;4.65;3.17;;;12.70;99.90;;;;;;5052337;28;20051;-63
2022/09/26 13:02:20;;;;;;;5.13;3.05;;;12.80;99.90;;;;;;5052090;28;20089;-63
2022/09/26 13:04:58;;;;;;;3.45;2.40;;;12.80;99.90;;;;;;5052327;28;20040;-63
2022/09/26 13:07:46;;;;;;;4.43;3.00;;;12.80;99.90;;;;;;5052291;28;20049;-62
2022/09/26 13:10:21;;;;;;;5.15;2.72;;;12.80;99.90;;;;;;5042165;28;20033;-63
2022/09/26 13:13:12;;;;;;;3.95;2.90;;;12.90;99.90;;;;;;5053138;28;20674;-63
2022/09/26 13:16:00;;;;;;;4.45;3.10;;;13.00;99.90;;;;;;5053614;28;20133;-63
2022/09/26 13:18:38;;;;;;;4.05;2.97;;;13.10;99.90;;;;;;5052910;28;20040;-62
2022/09/26 13:21:17;;;;;;;3.03;2.20;;;13.20;99.90;;;;;;5053084;28;20378;-63
2022/09/26 13:23:56;;;;;;;4.45;2.20;;;13.30;99.90;;;;;;5040869;28;20037;-63
2022/09/26 13:26:30;;;;;;;3.42;2.60;;;13.30;99.90;;;;;;5052408;28;20073;-63
2022/09/26 13:29:06;;;;;;;3.28;2.30;;;13.40;99.90;;;;;;5052956;28;20047;-63
2022/09/26 13:31:40;;;;;;;4.10;2.70;;;13.40;99.90;;;;;;5052939;28;20155;-63